Terminal Aerodrome Forecast
Issued by NWS

Home | Current Version | Previous Version | Text Only | Print | Product List | Glossary On
Versions: 1 2 3 4 5 6 7 8 9 10 11 12 13 14 15 16 17 18 19 20 21 22 23 24 25 26 27 28 29
203
FTUS43 KILX 190538
TAFBMI
TAF
KBMI 190538Z 1906/2006 18007KT 5SM BR SCT200
     FM191000 17005KT 4SM BR BKN035
     FM191700 13006KT P6SM OVC030
     FM191800 10006KT 4SM -SHRA BR OVC015
     FM200100 10008KT 2SM SHRA BR OVC003=

USA.gov is the U.S. government's official web portal to all federal, state and local government web resources and services.